sensor_id;sensor_type;location;lat;lon;timestamp;P1;durP1;ratioP1;P2;durP2;ratioP2
769;SDS011;368;48.698;9.116;2023-11-18T00:01:33;3.93;;;3.63;;
769;SDS011;368;48.698;9.116;2023-11-18T00:04:00;3.63;;;3.33;;
769;SDS011;368;48.698;9.116;2023-11-18T00:06:27;4.23;;;3.73;;
769;SDS011;368;48.698;9.116;2023-11-18T00:08:55;4.27;;;3.87;;
769;SDS011;368;48.698;9.116;2023-11-18T00:11:23;4.27;;;3.50;;
769;SDS011;368;48.698;9.116;2023-11-18T00:13:49;3.30;;;2.90;;
769;SDS011;368;48.698;9.116;2023-11-18T00:16:16;3.23;;;2.93;;
769;SDS011;368;48.698;9.116;2023-11-18T00:18:44;3.70;;;2.97;;
769;SDS011;368;48.698;9.116;2023-11-18T00:21:11;3.47;;;3.17;;
769;SDS011;368;48.698;9.116;2023-11-18T00:23:38;3.70;;;3.23;;
769;SDS011;368;48.698;9.116;2023-11-18T00:26:06;3.60;;;3.30;;
769;SDS011;368;48.698;9.116;2023-11-18T00:28:33;2.93;;;2.70;;
769;SDS011;368;48.698;9.116;2023-11-18T00:31:00;3.90;;;3.53;;
769;SDS011;368;48.698;9.116;2023-11-18T00:33:29;3.40;;;2.57;;
769;SDS011;368;48.698;9.116;2023-11-18T00:35:56;3.27;;;3.00;;
769;SDS011;368;48.698;9.116;2023-11-18T00:38:25;3.50;;;3.30;;
769;SDS011;368;48.698;9.116;2023-11-18T00:40:51;3.73;;;3.33;;
769;SDS011;368;48.698;9.116;2023-11-18T00:43:20;3.33;;;3.03;;
769;SDS011;368;48.698;9.116;2023-11-18T00:45:47;3.93;;;3.10;;
769;SDS011;368;48.698;9.116;2023-11-18T00:48:14;3.50;;;3.20;;
769;SDS011;368;48.698;9.116;2023-11-18T00:50:41;2.87;;;2.67;;
769;SDS011;368;48.698;9.116;2023-11-18T00:53:08;4.30;;;2.97;;
769;SDS011;368;48.698;9.116;2023-11-18T00:55:35;3.20;;;2.90;;
769;SDS011;368;48.698;9.116;2023-11-18T00:58:02;4.20;;;3.80;;
769;SDS011;368;48.698;9.116;2023-11-18T01:00:31;3.10;;;2.70;;
769;SDS011;368;48.698;9.116;2023-11-18T01:02:58;4.10;;;3.53;;
769;SDS011;368;48.698;9.116;2023-11-18T01:05:24;3.50;;;3.20;;
769;SDS011;368;48.698;9.116;2023-11-18T01:07:51;5.60;;;3.93;;
769;SDS011;368;48.698;9.116;2023-11-18T01:10:18;4.10;;;3.40;;
769;SDS011;368;48.698;9.116;2023-11-18T01:12:45;3.07;;;2.87;;
769;SDS011;368;48.698;9.116;2023-11-18T01:15:12;3.67;;;3.37;;
769;SDS011;368;48.698;9.116;2023-11-18T01:17:41;4.27;;;3.20;;
769;SDS011;368;48.698;9.116;2023-11-18T01:20:08;5.60;;;3.40;;
769;SDS011;368;48.698;9.116;2023-11-18T01:22:36;6.73;;;3.47;;
769;SDS011;368;48.698;9.116;2023-11-18T01:25:04;3.80;;;3.40;;
769;SDS011;368;48.698;9.116;2023-11-18T01:27:33;3.53;;;3.23;;
769;SDS011;368;48.698;9.116;2023-11-18T01:30:00;3.90;;;3.60;;
769;SDS011;368;48.698;9.116;2023-11-18T01:32:29;4.50;;;3.80;;
769;SDS011;368;48.698;9.116;2023-11-18T01:34:57;3.87;;;3.50;;
769;SDS011;368;48.698;9.116;2023-11-18T01:37:24;4.47;;;4.07;;
769;SDS011;368;48.698;9.116;2023-11-18T01:39:51;4.20;;;3.60;;
769;SDS011;368;48.698;9.116;2023-11-18T01:42:18;4.03;;;3.57;;
769;SDS011;368;48.698;9.116;2023-11-18T01:44:44;3.13;;;2.83;;
769;SDS011;368;48.698;9.116;2023-11-18T01:47:11;4.23;;;3.27;;
769;SDS011;368;48.698;9.116;2023-11-18T01:49:40;4.80;;;4.10;;
769;SDS011;368;48.698;9.116;2023-11-18T01:52:09;3.80;;;3.10;;
769;SDS011;368;48.698;9.116;2023-11-18T01:54:37;3.53;;;3.23;;
769;SDS011;368;48.698;9.116;2023-11-18T01:57:04;3.70;;;3.40;;
769;SDS011;368;48.698;9.116;2023-11-18T01:59:34;3.87;;;3.57;;
769;SDS011;368;48.698;9.116;2023-11-18T02:02:03;3.83;;;3.53;;
769;SDS011;368;48.698;9.116;2023-11-18T02:04:31;3.53;;;2.70;;
769;SDS011;368;48.698;9.116;2023-11-18T02:06:58;3.30;;;2.87;;
769;SDS011;368;48.698;9.116;2023-11-18T02:09:30;4.37;;;3.27;;
769;SDS011;368;48.698;9.116;2023-11-18T02:11:59;2.90;;;2.70;;
769;SDS011;368;48.698;9.116;2023-11-18T02:14:34;3.57;;;3.27;;
769;SDS011;368;48.698;9.116;2023-11-18T02:17:05;2.87;;;2.60;;
769;SDS011;368;48.698;9.116;2023-11-18T02:19:37;3.63;;;3.30;;
769;SDS011;368;48.698;9.116;2023-11-18T02:22:05;3.27;;;2.97;;
769;SDS011;368;48.698;9.116;2023-11-18T02:24:34;2.70;;;2.50;;
769;SDS011;368;48.698;9.116;2023-11-18T02:27:04;3.40;;;3.07;;
769;SDS011;368;48.698;9.116;2023-11-18T02:29:32;3.00;;;2.70;;
769;SDS011;368;48.698;9.116;2023-11-18T02:32:03;3.00;;;2.80;;
769;SDS011;368;48.698;9.116;2023-11-18T02:34:40;2.57;;;2.37;;
769;SDS011;368;48.698;9.116;2023-11-18T02:37:13;3.27;;;2.97;;
769;SDS011;368;48.698;9.116;2023-11-18T02:39:42;3.97;;;2.83;;
769;SDS011;368;48.698;9.116;2023-11-18T02:42:12;2.60;;;2.40;;
769;SDS011;368;48.698;9.116;2023-11-18T02:44:39;3.30;;;2.70;;
769;SDS011;368;48.698;9.116;2023-11-18T02:47:06;2.90;;;2.60;;
769;SDS011;368;48.698;9.116;2023-11-18T02:49:34;2.80;;;2.43;;
769;SDS011;368;48.698;9.116;2023-11-18T02:52:01;5.40;;;3.00;;
769;SDS011;368;48.698;9.116;2023-11-18T02:54:30;3.33;;;3.03;;
769;SDS011;368;48.698;9.116;2023-11-18T02:56:56;2.90;;;2.70;;
769;SDS011;368;48.698;9.116;2023-11-18T02:59:25;2.60;;;2.40;;
769;SDS011;368;48.698;9.116;2023-11-18T03:01:55;3.40;;;2.50;;
769;SDS011;368;48.698;9.116;2023-11-18T03:04:22;3.00;;;2.53;;
769;SDS011;368;48.698;9.116;2023-11-18T03:06:49;3.20;;;2.93;;
769;SDS011;368;48.698;9.116;2023-11-18T03:09:16;3.10;;;2.80;;
769;SDS011;368;48.698;9.116;2023-11-18T03:11:44;2.40;;;2.20;;
769;SDS011;368;48.698;9.116;2023-11-18T03:14:11;3.00;;;2.80;;
769;SDS011;368;48.698;9.116;2023-11-18T03:16:39;3.90;;;2.50;;
769;SDS011;368;48.698;9.116;2023-11-18T03:19:06;2.50;;;2.30;;
769;SDS011;368;48.698;9.116;2023-11-18T03:21:33;2.70;;;2.50;;
769;SDS011;368;48.698;9.116;2023-11-18T03:24:00;3.27;;;2.83;;
769;SDS011;368;48.698;9.116;2023-11-18T03:26:27;2.17;;;1.97;;
769;SDS011;368;48.698;9.116;2023-11-18T03:28:55;2.40;;;2.20;;
769;SDS011;368;48.698;9.116;2023-11-18T03:31:21;2.80;;;2.60;;
769;SDS011;368;48.698;9.116;2023-11-18T03:33:50;2.60;;;2.40;;
769;SDS011;368;48.698;9.116;2023-11-18T03:36:17;4.27;;;3.20;;
769;SDS011;368;48.698;9.116;2023-11-18T03:38:44;3.07;;;2.77;;
769;SDS011;368;48.698;9.116;2023-11-18T03:41:12;3.27;;;3.00;;
769;SDS011;368;48.698;9.116;2023-11-18T03:43:39;2.90;;;2.70;;
769;SDS011;368;48.698;9.116;2023-11-18T03:46:06;3.73;;;3.23;;
769;SDS011;368;48.698;9.116;2023-11-18T03:48:33;2.40;;;2.20;;
769;SDS011;368;48.698;9.116;2023-11-18T03:51:02;2.80;;;2.57;;
769;SDS011;368;48.698;9.116;2023-11-18T03:53:30;2.50;;;2.30;;
769;SDS011;368;48.698;9.116;2023-11-18T03:55:58;3.97;;;2.60;;
769;SDS011;368;48.698;9.116;2023-11-18T03:58:27;3.67;;;2.40;;
769;SDS011;368;48.698;9.116;2023-11-18T04:00:54;3.17;;;2.87;;
769;SDS011;368;48.698;9.116;2023-11-18T04:03:22;2.50;;;2.30;;
769;SDS011;368;48.698;9.116;2023-11-18T04:05:49;2.77;;;2.57;;
769;SDS011;368;48.698;9.116;2023-11-18T04:08:17;2.97;;;2.50;;
769;SDS011;368;48.698;9.116;2023-11-18T04:10:44;2.50;;;2.30;;
769;SDS011;368;48.698;9.116;2023-11-18T04:13:11;2.50;;;2.30;;
769;SDS011;368;48.698;9.116;2023-11-18T04:15:38;2.47;;;2.37;;
769;SDS011;368;48.698;9.116;2023-11-18T04:18:04;2.73;;;2.47;;
769;SDS011;368;48.698;9.116;2023-11-18T04:20:31;2.97;;;2.73;;
769;SDS011;368;48.698;9.116;2023-11-18T04:22:58;4.47;;;3.30;;
769;SDS011;368;48.698;9.116;2023-11-18T04:25:27;5.60;;;4.63;;
769;SDS011;368;48.698;9.116;2023-11-18T04:27:54;3.40;;;3.10;;
769;SDS011;368;48.698;9.116;2023-11-18T04:30:19;2.97;;;2.77;;
769;SDS011;368;48.698;9.116;2023-11-18T04:32:46;3.50;;;3.20;;
769;SDS011;368;48.698;9.116;2023-11-18T04:35:13;3.00;;;2.80;;
769;SDS011;368;48.698;9.116;2023-11-18T04:37:40;3.23;;;2.90;;
769;SDS011;368;48.698;9.116;2023-11-18T04:40:11;3.00;;;2.40;;
769;SDS011;368;48.698;9.116;2023-11-18T04:42:39;3.63;;;3.30;;
769;SDS011;368;48.698;9.116;2023-11-18T04:45:07;2.90;;;2.63;;
769;SDS011;368;48.698;9.116;2023-11-18T04:47:35;3.47;;;2.90;;
769;SDS011;368;48.698;9.116;2023-11-18T04:50:03;3.43;;;3.13;;
769;SDS011;368;48.698;9.116;2023-11-18T04:52:30;4.23;;;2.90;;
769;SDS011;368;48.698;9.116;2023-11-18T04:54:59;3.60;;;3.10;;
769;SDS011;368;48.698;9.116;2023-11-18T04:57:27;3.47;;;3.03;;
769;SDS011;368;48.698;9.116;2023-11-18T04:59:55;2.93;;;2.73;;
769;SDS011;368;48.698;9.116;2023-11-18T05:02:22;2.73;;;2.53;;
769;SDS011;368;48.698;9.116;2023-11-18T05:04:48;3.50;;;3.20;;
769;SDS011;368;48.698;9.116;2023-11-18T05:07:15;3.30;;;3.00;;
769;SDS011;368;48.698;9.116;2023-11-18T05:09:43;4.10;;;3.70;;
769;SDS011;368;48.698;9.116;2023-11-18T05:12:10;5.77;;;3.50;;
769;SDS011;368;48.698;9.116;2023-11-18T05:14:36;3.37;;;2.83;;
769;SDS011;368;48.698;9.116;2023-11-18T05:17:05;3.80;;;2.90;;
769;SDS011;368;48.698;9.116;2023-11-18T05:19:32;4.40;;;3.57;;
769;SDS011;368;48.698;9.116;2023-11-18T05:21:59;7.43;;;3.43;;
769;SDS011;368;48.698;9.116;2023-11-18T05:24:26;3.53;;;3.23;;
769;SDS011;368;48.698;9.116;2023-11-18T05:26:53;4.33;;;3.83;;
769;SDS011;368;48.698;9.116;2023-11-18T05:29:20;4.97;;;3.90;;
769;SDS011;368;48.698;9.116;2023-11-18T05:31:49;5.20;;;4.47;;
769;SDS011;368;48.698;9.116;2023-11-18T05:34:18;4.30;;;3.90;;
769;SDS011;368;48.698;9.116;2023-11-18T05:36:45;4.47;;;3.70;;
769;SDS011;368;48.698;9.116;2023-11-18T05:39:13;4.10;;;3.70;;
769;SDS011;368;48.698;9.116;2023-11-18T05:41:40;3.83;;;3.43;;
769;SDS011;368;48.698;9.116;2023-11-18T05:44:10;5.03;;;4.63;;
769;SDS011;368;48.698;9.116;2023-11-18T05:46:42;9.63;;;5.67;;
769;SDS011;368;48.698;9.116;2023-11-18T05:49:11;5.20;;;4.33;;
769;SDS011;368;48.698;9.116;2023-11-18T05:51:40;5.50;;;5.00;;
769;SDS011;368;48.698;9.116;2023-11-18T05:54:07;5.47;;;4.77;;
769;SDS011;368;48.698;9.116;2023-11-18T05:56:34;4.50;;;4.10;;
769;SDS011;368;48.698;9.116;2023-11-18T05:59:01;4.30;;;3.90;;
769;SDS011;368;48.698;9.116;2023-11-18T06:01:29;4.33;;;4.03;;
769;SDS011;368;48.698;9.116;2023-11-18T06:03:56;3.90;;;3.43;;
769;SDS011;368;48.698;9.116;2023-11-18T06:06:24;4.47;;;4.07;;
769;SDS011;368;48.698;9.116;2023-11-18T06:08:52;5.00;;;4.50;;
769;SDS011;368;48.698;9.116;2023-11-18T06:11:19;4.27;;;3.87;;
769;SDS011;368;48.698;9.116;2023-11-18T06:13:48;4.50;;;3.77;;
769;SDS011;368;48.698;9.116;2023-11-18T06:16:16;4.93;;;3.80;;
769;SDS011;368;48.698;9.116;2023-11-18T06:18:46;4.43;;;4.00;;
769;SDS011;368;48.698;9.116;2023-11-18T06:21:14;6.00;;;3.60;;
769;SDS011;368;48.698;9.116;2023-11-18T06:23:43;4.23;;;3.83;;
769;SDS011;368;48.698;9.116;2023-11-18T06:26:14;4.17;;;3.80;;
769;SDS011;368;48.698;9.116;2023-11-18T06:28:41;3.40;;;3.20;;
769;SDS011;368;48.698;9.116;2023-11-18T06:31:09;3.70;;;3.33;;
769;SDS011;368;48.698;9.116;2023-11-18T06:33:37;3.07;;;2.70;;
769;SDS011;368;48.698;9.116;2023-11-18T06:36:05;4.20;;;2.80;;
769;SDS011;368;48.698;9.116;2023-11-18T06:38:33;4.20;;;3.20;;
769;SDS011;368;48.698;9.116;2023-11-18T06:41:00;4.07;;;3.10;;
769;SDS011;368;48.698;9.116;2023-11-18T06:43:31;5.40;;;3.80;;
769;SDS011;368;48.698;9.116;2023-11-18T06:46:16;5.13;;;4.33;;
769;SDS011;368;48.698;9.116;2023-11-18T06:48:46;5.77;;;5.10;;
769;SDS011;368;48.698;9.116;2023-11-18T06:51:14;6.40;;;5.43;;
769;SDS011;368;48.698;9.116;2023-11-18T06:53:41;7.70;;;6.83;;
769;SDS011;368;48.698;9.116;2023-11-18T06:56:09;10.03;;;9.03;;
769;SDS011;368;48.698;9.116;2023-11-18T06:58:38;19.20;;;13.10;;
769;SDS011;368;48.698;9.116;2023-11-18T07:01:07;18.80;;;13.57;;
769;SDS011;368;48.698;9.116;2023-11-18T07:03:34;17.20;;;11.83;;
769;SDS011;368;48.698;9.116;2023-11-18T07:06:01;8.40;;;6.63;;
769;SDS011;368;48.698;9.116;2023-11-18T07:08:30;6.10;;;5.17;;
769;SDS011;368;48.698;9.116;2023-11-18T07:10:57;8.33;;;6.80;;
769;SDS011;368;48.698;9.116;2023-11-18T07:13:26;18.03;;;12.20;;
769;SDS011;368;48.698;9.116;2023-11-18T07:15:54;18.30;;;11.10;;
769;SDS011;368;48.698;9.116;2023-11-18T07:18:22;9.00;;;7.70;;
769;SDS011;368;48.698;9.116;2023-11-18T07:20:49;11.70;;;9.10;;
769;SDS011;368;48.698;9.116;2023-11-18T07:23:17;9.50;;;8.23;;
769;SDS011;368;48.698;9.116;2023-11-18T07:25:44;8.80;;;8.00;;
769;SDS011;368;48.698;9.116;2023-11-18T07:28:11;14.10;;;10.83;;
769;SDS011;368;48.698;9.116;2023-11-18T07:30:40;11.63;;;8.50;;
769;SDS011;368;48.698;9.116;2023-11-18T07:33:09;12.50;;;10.30;;
769;SDS011;368;48.698;9.116;2023-11-18T07:35:36;12.43;;;9.80;;
769;SDS011;368;48.698;9.116;2023-11-18T07:38:03;11.87;;;9.87;;
769;SDS011;368;48.698;9.116;2023-11-18T07:40:32;12.00;;;9.73;;
769;SDS011;368;48.698;9.116;2023-11-18T07:42:59;8.23;;;7.37;;
769;SDS011;368;48.698;9.116;2023-11-18T07:45:27;9.40;;;8.40;;
769;SDS011;368;48.698;9.116;2023-11-18T07:48:02;8.60;;;7.63;;
769;SDS011;368;48.698;9.116;2023-11-18T07:50:33;11.40;;;10.23;;
769;SDS011;368;48.698;9.116;2023-11-18T07:53:00;8.93;;;8.00;;
769;SDS011;368;48.698;9.116;2023-11-18T07:55:27;9.30;;;8.40;;
769;SDS011;368;48.698;9.116;2023-11-18T07:57:55;7.70;;;7.00;;
769;SDS011;368;48.698;9.116;2023-11-18T08:00:22;8.57;;;6.40;;
769;SDS011;368;48.698;9.116;2023-11-18T08:02:49;6.70;;;5.93;;
769;SDS011;368;48.698;9.116;2023-11-18T08:05:19;7.03;;;6.20;;
769;SDS011;368;48.698;9.116;2023-11-18T08:07:49;7.37;;;6.20;;
769;SDS011;368;48.698;9.116;2023-11-18T08:10:16;6.43;;;5.60;;
769;SDS011;368;48.698;9.116;2023-11-18T08:12:43;6.70;;;6.00;;
769;SDS011;368;48.698;9.116;2023-11-18T08:15:11;8.13;;;6.37;;
769;SDS011;368;48.698;9.116;2023-11-18T08:17:39;6.70;;;5.67;;
769;SDS011;368;48.698;9.116;2023-11-18T08:20:06;6.30;;;5.73;;
769;SDS011;368;48.698;9.116;2023-11-18T08:22:39;8.03;;;5.43;;
769;SDS011;368;48.698;9.116;2023-11-18T08:25:09;5.77;;;5.17;;
769;SDS011;368;48.698;9.116;2023-11-18T08:27:37;6.00;;;5.00;;
769;SDS011;368;48.698;9.116;2023-11-18T08:30:05;5.00;;;4.60;;
769;SDS011;368;48.698;9.116;2023-11-18T08:32:36;5.00;;;4.37;;
769;SDS011;368;48.698;9.116;2023-11-18T08:35:04;5.43;;;4.30;;
769;SDS011;368;48.698;9.116;2023-11-18T08:37:32;6.43;;;4.20;;
769;SDS011;368;48.698;9.116;2023-11-18T08:40:00;7.50;;;6.17;;
769;SDS011;368;48.698;9.116;2023-11-18T08:42:29;5.30;;;4.80;;
769;SDS011;368;48.698;9.116;2023-11-18T08:44:59;3.80;;;3.43;;
769;SDS011;368;48.698;9.116;2023-11-18T08:47:26;3.83;;;3.10;;
769;SDS011;368;48.698;9.116;2023-11-18T08:49:53;4.47;;;4.07;;
769;SDS011;368;48.698;9.116;2023-11-18T08:52:20;6.57;;;4.93;;
769;SDS011;368;48.698;9.116;2023-11-18T08:54:49;4.70;;;3.50;;
769;SDS011;368;48.698;9.116;2023-11-18T08:57:31;4.13;;;3.70;;
769;SDS011;368;48.698;9.116;2023-11-18T09:00:13;3.80;;;3.50;;
769;SDS011;368;48.698;9.116;2023-11-18T09:03:02;3.97;;;3.03;;
769;SDS011;368;48.698;9.116;2023-11-18T09:05:30;3.70;;;3.03;;
769;SDS011;368;48.698;9.116;2023-11-18T09:08:00;3.90;;;3.27;;
769;SDS011;368;48.698;9.116;2023-11-18T09:10:31;2.73;;;2.40;;
769;SDS011;368;48.698;9.116;2023-11-18T09:13:00;3.17;;;2.87;;
769;SDS011;368;48.698;9.116;2023-11-18T09:15:28;2.77;;;2.47;;
769;SDS011;368;48.698;9.116;2023-11-18T09:17:56;2.93;;;2.53;;
769;SDS011;368;48.698;9.116;2023-11-18T09:20:23;3.40;;;3.10;;
769;SDS011;368;48.698;9.116;2023-11-18T09:22:49;3.33;;;2.80;;
769;SDS011;368;48.698;9.116;2023-11-18T09:25:20;3.13;;;2.60;;
769;SDS011;368;48.698;9.116;2023-11-18T09:27:48;2.30;;;2.07;;
769;SDS011;368;48.698;9.116;2023-11-18T09:30:16;3.20;;;2.70;;
769;SDS011;368;48.698;9.116;2023-11-18T09:32:43;2.50;;;2.30;;
769;SDS011;368;48.698;9.116;2023-11-18T09:35:12;2.37;;;2.10;;
769;SDS011;368;48.698;9.116;2023-11-18T09:37:39;2.67;;;2.27;;
769;SDS011;368;48.698;9.116;2023-11-18T09:40:08;2.37;;;2.17;;
769;SDS011;368;48.698;9.116;2023-11-18T09:42:39;3.60;;;2.03;;
769;SDS011;368;48.698;9.116;2023-11-18T09:45:08;2.40;;;2.20;;
769;SDS011;368;48.698;9.116;2023-11-18T09:47:42;2.93;;;2.60;;
769;SDS011;368;48.698;9.116;2023-11-18T09:50:12;2.10;;;1.90;;
769;SDS011;368;48.698;9.116;2023-11-18T09:52:47;1.97;;;1.60;;
769;SDS011;368;48.698;9.116;2023-11-18T09:55:19;2.03;;;1.73;;
769;SDS011;368;48.698;9.116;2023-11-18T09:57:55;2.83;;;2.10;;
769;SDS011;368;48.698;9.116;2023-11-18T10:00:29;2.20;;;2.00;;
769;SDS011;368;48.698;9.116;2023-11-18T10:02:59;2.60;;;2.07;;
769;SDS011;368;48.698;9.116;2023-11-18T10:05:26;1.70;;;1.60;;
769;SDS011;368;48.698;9.116;2023-11-18T10:07:55;2.73;;;2.47;;
769;SDS011;368;48.698;9.116;2023-11-18T10:10:23;2.87;;;2.57;;
769;SDS011;368;48.698;9.116;2023-11-18T10:12:55;2.67;;;2.20;;
769;SDS011;368;48.698;9.116;2023-11-18T10:15:24;3.10;;;1.63;;
769;SDS011;368;48.698;9.116;2023-11-18T10:17:52;6.60;;;2.13;;
769;SDS011;368;48.698;9.116;2023-11-18T10:20:42;2.80;;;2.23;;
769;SDS011;368;48.698;9.116;2023-11-18T10:23:10;2.30;;;2.10;;
769;SDS011;368;48.698;9.116;2023-11-18T10:25:41;2.90;;;2.03;;
769;SDS011;368;48.698;9.116;2023-11-18T10:28:20;3.77;;;2.10;;
769;SDS011;368;48.698;9.116;2023-11-18T10:30:48;2.10;;;1.80;;
769;SDS011;368;48.698;9.116;2023-11-18T10:33:16;4.20;;;2.37;;
769;SDS011;368;48.698;9.116;2023-11-18T10:35:51;2.07;;;1.87;;
769;SDS011;368;48.698;9.116;2023-11-18T10:38:20;8.83;;;6.27;;
769;SDS011;368;48.698;9.116;2023-11-18T10:40:50;2.00;;;1.70;;
769;SDS011;368;48.698;9.116;2023-11-18T10:43:20;1.90;;;1.40;;
769;SDS011;368;48.698;9.116;2023-11-18T10:45:49;1.80;;;1.33;;
769;SDS011;368;48.698;9.116;2023-11-18T10:48:17;1.80;;;1.40;;
769;SDS011;368;48.698;9.116;2023-11-18T10:50:46;3.30;;;2.30;;
769;SDS011;368;48.698;9.116;2023-11-18T10:53:16;2.60;;;1.80;;
769;SDS011;368;48.698;9.116;2023-11-18T10:55:44;3.20;;;2.00;;
769;SDS011;368;48.698;9.116;2023-11-18T10:58:11;2.50;;;1.53;;
769;SDS011;368;48.698;9.116;2023-11-18T11:00:46;4.77;;;2.03;;
769;SDS011;368;48.698;9.116;2023-11-18T11:03:14;1.93;;;1.50;;
769;SDS011;368;48.698;9.116;2023-11-18T11:05:41;2.53;;;1.60;;
769;SDS011;368;48.698;9.116;2023-11-18T11:08:09;2.40;;;1.90;;
769;SDS011;368;48.698;9.116;2023-11-18T11:10:39;4.43;;;3.23;;
769;SDS011;368;48.698;9.116;2023-11-18T11:13:08;3.20;;;2.40;;
769;SDS011;368;48.698;9.116;2023-11-18T11:15:42;4.33;;;2.30;;
769;SDS011;368;48.698;9.116;2023-11-18T11:18:11;6.40;;;2.93;;
769;SDS011;368;48.698;9.116;2023-11-18T11:20:51;4.70;;;3.60;;
769;SDS011;368;48.698;9.116;2023-11-18T11:23:30;4.60;;;3.20;;
769;SDS011;368;48.698;9.116;2023-11-18T11:26:21;3.03;;;2.20;;
769;SDS011;368;48.698;9.116;2023-11-18T11:28:57;2.37;;;1.30;;
769;SDS011;368;48.698;9.116;2023-11-18T11:31:30;2.00;;;1.57;;
769;SDS011;368;48.698;9.116;2023-11-18T11:34:04;1.90;;;1.80;;
769;SDS011;368;48.698;9.116;2023-11-18T11:36:34;2.10;;;1.47;;
769;SDS011;368;48.698;9.116;2023-11-18T11:39:05;3.33;;;1.70;;
769;SDS011;368;48.698;9.116;2023-11-18T11:41:37;1.97;;;1.40;;
769;SDS011;368;48.698;9.116;2023-11-18T11:44:04;1.40;;;1.30;;
769;SDS011;368;48.698;9.116;2023-11-18T11:46:33;1.67;;;1.50;;
769;SDS011;368;48.698;9.116;2023-11-18T11:49:02;3.13;;;1.60;;
769;SDS011;368;48.698;9.116;2023-11-18T11:51:43;2.87;;;1.30;;
769;SDS011;368;48.698;9.116;2023-11-18T11:54:16;1.87;;;1.13;;
769;SDS011;368;48.698;9.116;2023-11-18T11:56:49;1.97;;;1.10;;
769;SDS011;368;48.698;9.116;2023-11-18T11:59:34;2.80;;;1.50;;
769;SDS011;368;48.698;9.116;2023-11-18T12:02:03;1.20;;;1.00;;
769;SDS011;368;48.698;9.116;2023-11-18T12:04:33;1.43;;;1.20;;
769;SDS011;368;48.698;9.116;2023-11-18T12:07:03;1.40;;;1.23;;
769;SDS011;368;48.698;9.116;2023-11-18T12:09:31;2.13;;;1.33;;
769;SDS011;368;48.698;9.116;2023-11-18T12:12:04;2.80;;;1.83;;
769;SDS011;368;48.698;9.116;2023-11-18T12:14:48;1.83;;;1.27;;
769;SDS011;368;48.698;9.116;2023-11-18T12:17:17;1.70;;;1.20;;
769;SDS011;368;48.698;9.116;2023-11-18T12:19:47;3.47;;;1.27;;
769;SDS011;368;48.698;9.116;2023-11-18T12:22:16;2.33;;;1.30;;
769;SDS011;368;48.698;9.116;2023-11-18T12:28:09;3.63;;;3.27;;
769;SDS011;368;48.698;9.116;2023-11-18T12:30:40;4.63;;;3.43;;
769;SDS011;368;48.698;9.116;2023-11-18T12:33:17;8.00;;;5.30;;
769;SDS011;368;48.698;9.116;2023-11-18T12:41:42;2.57;;;1.90;;
769;SDS011;368;48.698;9.116;2023-11-18T12:44:22;4.07;;;2.13;;
769;SDS011;368;48.698;9.116;2023-11-18T12:46:59;1.90;;;1.80;;
769;SDS011;368;48.698;9.116;2023-11-18T12:49:37;2.63;;;2.43;;
769;SDS011;368;48.698;9.116;2023-11-18T12:52:06;2.00;;;1.83;;
769;SDS011;368;48.698;9.116;2023-11-18T12:54:34;5.67;;;5.23;;
769;SDS011;368;48.698;9.116;2023-11-18T12:57:03;6.43;;;4.20;;
769;SDS011;368;48.698;9.116;2023-11-18T12:59:33;2.10;;;1.90;;
769;SDS011;368;48.698;9.116;2023-11-18T13:02:01;2.77;;;2.07;;
769;SDS011;368;48.698;9.116;2023-11-18T13:04:29;6.63;;;1.77;;
769;SDS011;368;48.698;9.116;2023-11-18T13:06:56;6.00;;;3.27;;
769;SDS011;368;48.698;9.116;2023-11-18T13:09:25;2.90;;;1.70;;
769;SDS011;368;48.698;9.116;2023-11-18T13:11:56;3.70;;;2.00;;
769;SDS011;368;48.698;9.116;2023-11-18T13:14:25;3.67;;;2.77;;
769;SDS011;368;48.698;9.116;2023-11-18T13:16:54;2.40;;;2.00;;
769;SDS011;368;48.698;9.116;2023-11-18T13:19:25;3.10;;;2.90;;
769;SDS011;368;48.698;9.116;2023-11-18T13:21:56;3.93;;;2.50;;
769;SDS011;368;48.698;9.116;2023-11-18T13:24:25;3.40;;;2.90;;
769;SDS011;368;48.698;9.116;2023-11-18T13:26:53;5.70;;;5.20;;
769;SDS011;368;48.698;9.116;2023-11-18T13:29:21;4.77;;;4.37;;
769;SDS011;368;48.698;9.116;2023-11-18T13:31:49;2.90;;;2.70;;
769;SDS011;368;48.698;9.116;2023-11-18T13:34:18;2.87;;;2.60;;
769;SDS011;368;48.698;9.116;2023-11-18T13:36:46;2.73;;;2.53;;
769;SDS011;368;48.698;9.116;2023-11-18T13:39:17;3.43;;;3.23;;
769;SDS011;368;48.698;9.116;2023-11-18T13:41:44;3.73;;;3.50;;
769;SDS011;368;48.698;9.116;2023-11-18T13:44:12;6.73;;;5.57;;
769;SDS011;368;48.698;9.116;2023-11-18T13:46:39;4.43;;;4.03;;
769;SDS011;368;48.698;9.116;2023-11-18T13:49:07;4.93;;;4.43;;
769;SDS011;368;48.698;9.116;2023-11-18T13:51:35;8.63;;;4.63;;
769;SDS011;368;48.698;9.116;2023-11-18T13:54:04;3.20;;;2.87;;
769;SDS011;368;48.698;9.116;2023-11-18T13:56:32;4.43;;;3.10;;
769;SDS011;368;48.698;9.116;2023-11-18T13:58:59;6.10;;;3.53;;
769;SDS011;368;48.698;9.116;2023-11-18T14:01:25;3.73;;;3.30;;
769;SDS011;368;48.698;9.116;2023-11-18T14:03:53;3.77;;;3.47;;
769;SDS011;368;48.698;9.116;2023-11-18T14:06:26;4.17;;;3.77;;
769;SDS011;368;48.698;9.116;2023-11-18T14:08:55;3.97;;;3.47;;
769;SDS011;368;48.698;9.116;2023-11-18T14:11:21;3.20;;;2.90;;
769;SDS011;368;48.698;9.116;2023-11-18T14:13:49;8.63;;;7.73;;
769;SDS011;368;48.698;9.116;2023-11-18T14:16:18;3.73;;;2.87;;
769;SDS011;368;48.698;9.116;2023-11-18T14:18:46;6.87;;;3.80;;
769;SDS011;368;48.698;9.116;2023-11-18T14:21:13;4.30;;;3.23;;
769;SDS011;368;48.698;9.116;2023-11-18T14:23:40;4.80;;;3.70;;
769;SDS011;368;48.698;9.116;2023-11-18T14:26:09;5.17;;;3.57;;
769;SDS011;368;48.698;9.116;2023-11-18T14:28:36;4.33;;;3.50;;
769;SDS011;368;48.698;9.116;2023-11-18T14:31:04;7.40;;;5.57;;
769;SDS011;368;48.698;9.116;2023-11-18T14:33:32;5.07;;;4.10;;
769;SDS011;368;48.698;9.116;2023-11-18T14:35:59;4.63;;;3.90;;
769;SDS011;368;48.698;9.116;2023-11-18T14:38:27;6.10;;;4.27;;
769;SDS011;368;48.698;9.116;2023-11-18T14:40:52;6.97;;;4.90;;
769;SDS011;368;48.698;9.116;2023-11-18T14:43:21;5.63;;;4.77;;
769;SDS011;368;48.698;9.116;2023-11-18T14:45:48;4.80;;;4.40;;
769;SDS011;368;48.698;9.116;2023-11-18T14:48:15;5.00;;;4.50;;
769;SDS011;368;48.698;9.116;2023-11-18T14:50:41;6.43;;;4.40;;
769;SDS011;368;48.698;9.116;2023-11-18T14:53:10;6.60;;;5.77;;
769;SDS011;368;48.698;9.116;2023-11-18T14:55:37;7.00;;;5.10;;
769;SDS011;368;48.698;9.116;2023-11-18T14:58:04;7.47;;;5.43;;
769;SDS011;368;48.698;9.116;2023-11-18T15:00:33;11.63;;;10.37;;
769;SDS011;368;48.698;9.116;2023-11-18T15:03:01;11.30;;;8.97;;
769;SDS011;368;48.698;9.116;2023-11-18T15:05:28;9.23;;;7.23;;
769;SDS011;368;48.698;9.116;2023-11-18T15:07:56;14.43;;;9.90;;
769;SDS011;368;48.698;9.116;2023-11-18T15:10:26;10.80;;;7.87;;
769;SDS011;368;48.698;9.116;2023-11-18T15:12:53;19.03;;;12.57;;
769;SDS011;368;48.698;9.116;2023-11-18T15:15:23;6.90;;;6.20;;
769;SDS011;368;48.698;9.116;2023-11-18T15:17:58;11.77;;;7.70;;
769;SDS011;368;48.698;9.116;2023-11-18T15:20:28;33.50;;;25.97;;
769;SDS011;368;48.698;9.116;2023-11-18T15:22:55;12.73;;;8.53;;
769;SDS011;368;48.698;9.116;2023-11-18T15:25:22;14.53;;;12.30;;
769;SDS011;368;48.698;9.116;2023-11-18T15:27:49;10.33;;;6.70;;
769;SDS011;368;48.698;9.116;2023-11-18T15:30:16;18.23;;;10.97;;
769;SDS011;368;48.698;9.116;2023-11-18T15:32:44;15.67;;;10.60;;
769;SDS011;368;48.698;9.116;2023-11-18T15:35:13;13.27;;;10.00;;
769;SDS011;368;48.698;9.116;2023-11-18T15:37:41;11.23;;;8.40;;
769;SDS011;368;48.698;9.116;2023-11-18T15:40:11;7.00;;;5.63;;
769;SDS011;368;48.698;9.116;2023-11-18T15:42:40;8.83;;;6.50;;
769;SDS011;368;48.698;9.116;2023-11-18T15:45:08;9.83;;;7.23;;
769;SDS011;368;48.698;9.116;2023-11-18T15:47:36;5.60;;;5.10;;
769;SDS011;368;48.698;9.116;2023-11-18T15:50:04;6.10;;;5.20;;
769;SDS011;368;48.698;9.116;2023-11-18T15:52:34;9.33;;;7.23;;
769;SDS011;368;48.698;9.116;2023-11-18T15:55:02;13.70;;;10.10;;
769;SDS011;368;48.698;9.116;2023-11-18T15:57:35;9.17;;;8.10;;
769;SDS011;368;48.698;9.116;2023-11-18T16:00:05;18.07;;;10.00;;
769;SDS011;368;48.698;9.116;2023-11-18T16:02:34;27.13;;;15.20;;